createdAt,value
2018-07-31T00:02:14.117Z,20.90
2018-07-31T00:07:17.749Z,20.70
2018-07-31T00:09:49.569Z,20.90
2018-07-31T00:12:21.349Z,21.10
2018-07-31T00:14:53.243Z,20.90
2018-07-31T00:17:25.017Z,20.80
2018-07-31T00:19:56.792Z,20.50
2018-07-31T00:22:28.457Z,20.60
2018-07-31T00:25:00.213Z,21.00
2018-07-31T00:27:32.537Z,21.30
2018-07-31T00:30:05.548Z,21.40
2018-07-31T00:32:37.569Z,21.30
2018-07-31T00:35:09.831Z,20.80
2018-07-31T00:37:41.617Z,20.40
2018-07-31T00:40:14.039Z,20.40
2018-07-31T00:42:46.096Z,20.50
2018-07-31T00:45:17.996Z,20.70
2018-07-31T00:47:49.757Z,20.90
2018-07-31T00:50:21.890Z,21.30
2018-07-31T00:52:53.657Z,21.60
2018-07-31T00:55:25.592Z,21.50
2018-07-31T00:57:57.339Z,21.30
2018-07-31T01:00:29.151Z,20.90
2018-07-31T01:03:00.949Z,20.60
2018-07-31T01:05:32.905Z,20.40
2018-07-31T01:08:05.031Z,20.60
2018-07-31T01:10:37.117Z,20.50
2018-07-31T01:13:09.440Z,20.50
2018-07-31T01:15:41.217Z,21.00
2018-07-31T01:18:13.497Z,20.90
2018-07-31T01:20:49.289Z,20.60
2018-07-31T01:23:21.237Z,20.40
2018-07-31T01:25:53.101Z,20.40
2018-07-31T01:28:24.901Z,20.50
2018-07-31T01:30:56.718Z,20.30
2018-07-31T01:33:28.529Z,20.40
2018-07-31T01:36:00.540Z,20.50
2018-07-31T01:38:33.097Z,20.30
2018-07-31T01:41:05.612Z,20.40
2018-07-31T01:43:37.394Z,20.30
2018-07-31T01:46:09.278Z,20.40
2018-07-31T01:48:41.089Z,20.50
2018-07-31T01:51:12.961Z,20.50
2018-07-31T01:53:44.757Z,20.60
2018-07-31T01:56:16.589Z,20.70
2018-07-31T01:58:48.996Z,20.50
2018-07-31T02:03:52.669Z,20.30
2018-07-31T02:06:27.049Z,19.90
2018-07-31T02:08:58.836Z,20.00
2018-07-31T02:11:30.676Z,20.00
2018-07-31T02:14:02.556Z,19.80
2018-07-31T02:16:34.389Z,19.70
2018-07-31T02:19:06.463Z,19.60
2018-07-31T02:21:38.337Z,19.60
2018-07-31T02:24:10.157Z,19.60
2018-07-31T02:26:42.250Z,19.60
2018-07-31T02:29:14.194Z,19.60
2018-07-31T02:31:46.041Z,20.00
2018-07-31T02:34:17.837Z,19.80
2018-07-31T02:36:49.721Z,19.90
2018-07-31T02:39:21.537Z,20.10
2018-07-31T02:41:53.273Z,19.60
2018-07-31T02:44:25.060Z,19.70
2018-07-31T02:46:57.044Z,20.00
2018-07-31T02:49:28.906Z,19.70
2018-07-31T02:57:03.167Z,19.40
2018-07-31T03:02:06.925Z,19.00
2018-07-31T03:07:10.747Z,19.10
2018-07-31T03:12:14.113Z,19.30
2018-07-31T03:14:45.966Z,18.80
2018-07-31T03:17:17.849Z,18.80
2018-07-31T03:19:49.626Z,18.70
2018-07-31T03:22:21.477Z,19.10
2018-07-31T03:24:53.289Z,19.40
2018-07-31T03:29:56.579Z,20.00
2018-07-31T03:34:59.586Z,19.30
2018-07-31T03:40:02.581Z,19.20
2018-07-31T03:42:34.446Z,18.80
2018-07-31T03:45:07.289Z,19.00
2018-07-31T03:47:39.128Z,19.00
2018-07-31T03:50:11.123Z,19.00
2018-07-31T03:52:43.023Z,19.40
2018-07-31T03:55:15.058Z,19.50
2018-07-31T04:00:18.120Z,19.50
2018-07-31T04:02:49.945Z,19.00
2018-07-31T04:05:21.891Z,18.80
2018-07-31T04:07:53.798Z,18.60
2018-07-31T04:12:56.838Z,19.30
2018-07-31T04:15:28.735Z,19.10
2018-07-31T04:18:00.610Z,18.80
2018-07-31T04:23:03.654Z,19.20
2018-07-31T04:25:35.575Z,18.80
2018-07-31T04:28:07.518Z,19.10
2018-07-31T04:30:39.386Z,18.80
2018-07-31T04:33:11.322Z,18.80
2018-07-31T04:35:43.152Z,19.10
2018-07-31T04:40:46.823Z,19.40
2018-07-31T04:45:49.938Z,19.40
2018-07-31T04:50:52.942Z,19.90
2018-07-31T04:53:24.883Z,19.60
2018-07-31T04:58:27.954Z,19.00
2018-07-31T05:00:59.851Z,19.10
2018-07-31T05:03:31.753Z,18.90
2018-07-31T05:13:37.074Z,19.30
2018-07-31T05:21:11.425Z,19.50
2018-07-31T05:23:43.276Z,19.30
2018-07-31T05:26:15.178Z,19.30
2018-07-31T05:28:47.022Z,19.30
2018-07-31T05:31:18.830Z,19.40
2018-07-31T05:38:53.405Z,19.80
2018-07-31T05:41:25.439Z,19.70
2018-07-31T05:43:58.079Z,19.70
2018-07-31T05:46:30.002Z,19.90
2018-07-31T05:49:02.053Z,20.00
2018-07-31T05:54:05.474Z,20.10
2018-07-31T05:56:37.355Z,20.00
2018-07-31T06:01:40.911Z,20.20
2018-07-31T06:06:44.287Z,20.30
2018-07-31T06:09:16.238Z,20.40
2018-07-31T06:11:48.267Z,20.30
2018-07-31T06:16:51.510Z,20.40
2018-07-31T06:19:23.532Z,20.50
2018-07-31T06:24:26.758Z,20.70
2018-07-31T06:29:29.966Z,20.70
2018-07-31T06:32:01.928Z,20.90
2018-07-31T06:34:34.167Z,20.90
2018-07-31T06:37:06.179Z,21.00
2018-07-31T06:39:38.198Z,21.20
2018-07-31T06:42:10.642Z,21.30
2018-07-31T06:44:42.696Z,21.20
2018-07-31T06:47:14.643Z,21.20
2018-07-31T06:49:46.694Z,21.30
2018-07-31T06:52:18.587Z,21.40
2018-07-31T06:54:50.665Z,21.60
2018-07-31T06:59:54.018Z,21.60
2018-07-31T07:02:26.160Z,21.70
2018-07-31T07:04:58.184Z,21.80
2018-07-31T07:07:30.166Z,21.90
2018-07-31T07:15:04.651Z,22.50
2018-07-31T07:17:36.827Z,22.60
2018-07-31T07:20:08.928Z,22.70
2018-07-31T07:22:41.113Z,22.70
2018-07-31T07:25:13.170Z,22.70
2018-07-31T07:27:45.063Z,22.90
2018-07-31T07:30:17.035Z,23.10
2018-07-31T07:32:49.166Z,23.20
2018-07-31T07:37:52.686Z,23.50
2018-07-31T07:40:24.665Z,23.50
2018-07-31T07:42:56.706Z,23.70
2018-07-31T07:45:28.738Z,23.80
2018-07-31T07:48:00.795Z,24.00
2018-07-31T07:58:07.750Z,24.40
2018-07-31T08:00:39.914Z,24.70
2018-07-31T08:03:11.995Z,24.80
2018-07-31T08:05:44.009Z,24.80
2018-07-31T08:08:16.005Z,25.00
2018-07-31T08:10:47.994Z,25.00
2018-07-31T08:13:19.866Z,25.00
2018-07-31T08:15:51.878Z,25.10
2018-07-31T08:18:23.766Z,25.30
2018-07-31T08:20:55.946Z,25.20
2018-07-31T08:23:27.898Z,25.40
2018-07-31T08:26:00.130Z,25.50
2018-07-31T08:28:32.121Z,25.60
2018-07-31T08:31:04.146Z,25.60
2018-07-31T08:33:36.093Z,25.50
2018-07-31T08:36:08.206Z,25.70
2018-07-31T08:38:40.094Z,25.90
2018-07-31T08:43:43.434Z,25.90
2018-07-31T08:48:47.184Z,26.20
2018-07-31T08:51:19.109Z,26.20
2018-07-31T08:53:50.966Z,26.40
2018-07-31T08:58:54.618Z,26.30
2018-07-31T09:01:26.686Z,26.50
2018-07-31T09:03:58.666Z,26.70
2018-07-31T09:06:30.694Z,26.80
2018-07-31T09:09:02.640Z,27.00
2018-07-31T09:11:34.683Z,27.10
2018-07-31T09:14:08.066Z,27.30
2018-07-31T09:16:40.028Z,27.20
2018-07-31T09:19:11.934Z,27.20
2018-07-31T09:21:44.018Z,27.40
2018-07-31T09:24:15.860Z,27.50
2018-07-31T09:26:47.706Z,27.40
2018-07-31T09:29:19.586Z,27.50
2018-07-31T09:31:51.586Z,27.60
2018-07-31T09:34:23.468Z,27.70
2018-07-31T09:36:55.388Z,27.80
2018-07-31T09:39:27.326Z,27.90
2018-07-31T09:41:59.313Z,28.00
2018-07-31T09:44:31.139Z,27.80
2018-07-31T09:47:02.998Z,28.10
2018-07-31T09:49:35.174Z,28.30
2018-07-31T09:52:08.011Z,28.30
2018-07-31T09:54:39.916Z,28.50
2018-07-31T09:57:12.085Z,28.50
2018-07-31T10:02:15.509Z,28.60
2018-07-31T10:04:47.488Z,28.50
2018-07-31T10:07:19.581Z,28.40
2018-07-31T10:09:51.617Z,28.30
2018-07-31T10:12:23.529Z,28.60
2018-07-31T10:14:55.427Z,28.50
2018-07-31T10:17:27.486Z,28.50
2018-07-31T10:19:59.327Z,28.40
2018-07-31T10:25:02.476Z,28.70
2018-07-31T10:27:34.366Z,28.80
2018-07-31T10:30:07.494Z,29.00
2018-07-31T10:32:39.519Z,29.10
2018-07-31T10:35:11.967Z,29.20
2018-07-31T10:37:43.972Z,29.40
2018-07-31T10:40:15.865Z,29.50
2018-07-31T10:47:50.458Z,29.70
2018-07-31T10:50:22.395Z,29.70
2018-07-31T10:52:54.569Z,30.00
2018-07-31T10:55:26.427Z,30.00
2018-07-31T10:57:58.593Z,30.10
2018-07-31T11:00:30.468Z,30.30
2018-07-31T11:03:03.298Z,30.40
2018-07-31T11:05:35.201Z,30.50
2018-07-31T11:08:07.230Z,30.10
2018-07-31T11:15:41.940Z,30.60
2018-07-31T11:18:13.908Z,30.60
2018-07-31T11:20:45.766Z,30.60
2018-07-31T11:23:17.648Z,30.80
2018-07-31T11:25:49.541Z,31.00
2018-07-31T11:28:21.554Z,31.10
2018-07-31T11:30:53.427Z,31.00
2018-07-31T11:33:25.377Z,31.10
2018-07-31T11:35:57.746Z,31.40
2018-07-31T11:41:01.048Z,31.40
2018-07-31T11:43:33.070Z,31.30
2018-07-31T11:46:05.063Z,31.70
2018-07-31T11:48:37.149Z,31.70
2018-07-31T11:51:09.000Z,31.80
2018-07-31T11:53:40.975Z,32.00
2018-07-31T11:56:12.890Z,32.00
2018-07-31T12:03:47.767Z,32.20
2018-07-31T12:08:51.535Z,32.20
2018-07-31T12:16:26.643Z,32.70
2018-07-31T12:18:58.514Z,32.60
2018-07-31T12:29:04.648Z,32.60
2018-07-31T12:31:36.591Z,32.50
2018-07-31T12:34:08.442Z,32.70
2018-07-31T12:36:40.256Z,32.80
2018-07-31T12:39:13.160Z,32.70
2018-07-31T12:44:16.296Z,33.00
2018-07-31T12:46:48.142Z,32.70
2018-07-31T12:49:19.977Z,32.90
2018-07-31T12:51:51.749Z,33.10
2018-07-31T12:54:23.535Z,33.30
2018-07-31T12:59:26.540Z,33.20
2018-07-31T13:04:30.339Z,33.20
2018-07-31T13:07:02.487Z,33.30
2018-07-31T13:09:34.361Z,33.40
2018-07-31T13:12:06.179Z,33.40
2018-07-31T13:14:38.153Z,33.50
2018-07-31T13:17:09.988Z,33.50
2018-07-31T13:19:42.110Z,33.60
2018-07-31T13:22:14.047Z,33.50
2018-07-31T13:24:45.875Z,33.50
2018-07-31T13:27:17.616Z,33.60
2018-07-31T13:29:49.545Z,33.50
2018-07-31T13:32:22.205Z,33.60
2018-07-31T13:34:54.660Z,33.90
2018-07-31T13:37:26.546Z,34.00
2018-07-31T13:39:58.526Z,34.20
2018-07-31T13:42:30.398Z,34.10
2018-07-31T13:45:02.314Z,34.00
2018-07-31T13:50:05.873Z,33.80
2018-07-31T13:52:38.015Z,34.20
2018-07-31T13:55:10.024Z,34.20
2018-07-31T13:57:42.061Z,34.20
2018-07-31T14:00:14.062Z,34.50
2018-07-31T14:02:46.046Z,34.00
2018-07-31T14:05:19.169Z,34.20
2018-07-31T14:07:51.296Z,34.20
2018-07-31T14:10:23.778Z,34.20
2018-07-31T14:12:55.650Z,34.00
2018-07-31T14:15:27.554Z,34.40
2018-07-31T14:20:30.838Z,34.30
2018-07-31T14:23:02.861Z,34.30
2018-07-31T14:28:06.316Z,34.20
2018-07-31T14:30:38.453Z,34.20
2018-07-31T14:38:13.084Z,34.50
2018-07-31T14:40:45.526Z,34.50
2018-07-31T14:43:17.774Z,34.30
2018-07-31T14:45:49.803Z,34.40
2018-07-31T14:48:22.978Z,34.30
2018-07-31T14:50:55.276Z,34.30
2018-07-31T14:53:28.017Z,34.70
2018-07-31T14:56:00.042Z,34.60
2018-07-31T14:58:31.802Z,34.90
2018-07-31T15:01:03.818Z,34.50
2018-07-31T15:03:35.691Z,34.70
2018-07-31T15:06:07.834Z,34.30
2018-07-31T15:08:40.493Z,34.60
2018-07-31T15:11:12.267Z,34.70
2018-07-31T15:16:15.493Z,33.80
2018-07-31T15:21:18.908Z,34.10
2018-07-31T15:23:50.902Z,34.30
2018-07-31T15:26:22.994Z,34.20
2018-07-31T15:28:55.079Z,34.30
2018-07-31T15:31:27.297Z,34.50
2018-07-31T15:33:59.997Z,34.10
2018-07-31T15:36:32.069Z,34.20
2018-07-31T15:41:35.678Z,33.80
2018-07-31T15:44:07.847Z,33.80
2018-07-31T15:46:40.166Z,33.80
2018-07-31T15:49:12.555Z,34.00
2018-07-31T15:51:44.764Z,34.20
2018-07-31T15:59:19.906Z,34.60
2018-07-31T16:04:23.974Z,33.90
2018-07-31T16:09:27.088Z,34.20
2018-07-31T16:11:59.349Z,34.10
2018-07-31T16:14:31.454Z,34.00
2018-07-31T16:17:03.506Z,34.10
2018-07-31T16:19:35.489Z,34.20
2018-07-31T16:22:07.327Z,34.00
2018-07-31T16:24:39.523Z,34.20
2018-07-31T16:27:11.695Z,34.00
2018-07-31T16:29:43.749Z,34.00
2018-07-31T16:34:47.211Z,34.00
2018-07-31T16:37:19.367Z,34.20
2018-07-31T16:39:51.636Z,34.00
2018-07-31T16:42:23.700Z,33.40
2018-07-31T16:47:27.178Z,33.70
2018-07-31T16:49:59.126Z,34.10
2018-07-31T16:52:31.209Z,33.90
2018-07-31T16:55:03.212Z,34.00
2018-07-31T16:57:36.253Z,33.80
2018-07-31T17:00:08.640Z,33.80
2018-07-31T17:02:40.675Z,34.00
2018-07-31T17:05:12.648Z,34.40
2018-07-31T17:07:44.695Z,34.80
2018-07-31T17:10:16.711Z,34.40
2018-07-31T17:15:20.231Z,33.90
2018-07-31T17:22:55.085Z,34.40
2018-07-31T17:25:27.089Z,34.30
2018-07-31T17:27:59.064Z,33.80
2018-07-31T17:30:31.551Z,33.70
2018-07-31T17:33:03.534Z,33.70
2018-07-31T17:35:38.044Z,33.50
2018-07-31T17:38:10.256Z,32.70
2018-07-31T17:40:42.135Z,32.00
2018-07-31T17:43:14.234Z,31.40
2018-07-31T17:45:46.235Z,31.50
2018-07-31T17:48:18.506Z,31.00
2018-07-31T17:50:51.466Z,30.70
2018-07-31T17:53:23.805Z,30.10
2018-07-31T17:55:55.966Z,29.80
2018-07-31T18:00:59.801Z,29.10
2018-07-31T18:03:31.790Z,29.10
2018-07-31T18:06:04.098Z,29.20
2018-07-31T18:11:07.407Z,28.90
2018-07-31T18:13:39.489Z,28.50
2018-07-31T18:16:11.966Z,28.30
2018-07-31T18:18:43.947Z,28.30
2018-07-31T18:21:15.965Z,27.60
2018-07-31T18:23:48.185Z,27.60
2018-07-31T18:31:22.627Z,27.50
2018-07-31T18:33:54.727Z,27.40
2018-07-31T18:36:26.666Z,27.00
2018-07-31T18:38:59.707Z,26.80
2018-07-31T18:41:32.235Z,26.80
2018-07-31T18:44:04.736Z,27.00
2018-07-31T18:46:37.228Z,26.90
2018-07-31T18:49:09.466Z,26.80
2018-07-31T18:56:44.436Z,26.80
2018-07-31T18:59:16.476Z,26.50
2018-07-31T19:01:48.533Z,26.50
2018-07-31T19:04:20.579Z,26.70
2018-07-31T19:06:52.582Z,26.80
2018-07-31T19:09:24.603Z,27.00
2018-07-31T19:11:56.793Z,26.70
2018-07-31T19:17:00.247Z,26.60
2018-07-31T19:19:32.391Z,26.50
2018-07-31T19:22:04.499Z,26.90
2018-07-31T19:24:36.615Z,27.00
2018-07-31T19:27:08.707Z,26.60
2018-07-31T19:29:40.977Z,26.50
2018-07-31T19:32:15.964Z,26.50
2018-07-31T19:34:49.370Z,26.60
2018-07-31T19:39:53.349Z,26.60
2018-07-31T19:42:25.329Z,26.30
2018-07-31T19:44:58.888Z,26.20
2018-07-31T19:47:31.015Z,26.00
2018-07-31T19:50:03.123Z,25.90
2018-07-31T19:52:35.422Z,25.80
2018-07-31T19:55:08.448Z,25.40
2018-07-31T19:57:41.050Z,25.60
2018-07-31T20:00:14.351Z,25.60
2018-07-31T20:02:46.466Z,25.40
2018-07-31T20:05:18.442Z,25.10
2018-07-31T20:07:50.418Z,25.30
2018-07-31T20:10:22.489Z,25.80
2018-07-31T20:15:26.969Z,25.80
2018-07-31T20:20:31.227Z,25.50
2018-07-31T20:23:03.131Z,25.60
2018-07-31T20:25:35.272Z,25.30
2018-07-31T20:28:08.727Z,25.10
2018-07-31T20:33:13.593Z,24.60
2018-07-31T20:35:45.601Z,24.80
2018-07-31T20:38:17.581Z,25.20
2018-07-31T20:40:49.566Z,25.30
2018-07-31T20:43:22.071Z,25.10
2018-07-31T20:45:54.570Z,25.30
2018-07-31T20:48:27.427Z,24.90
2018-07-31T20:50:59.538Z,24.90
2018-07-31T20:53:36.692Z,24.80
2018-07-31T20:56:08.830Z,24.70
2018-07-31T20:58:40.927Z,24.50
2018-07-31T21:01:13.171Z,24.40
2018-07-31T21:03:45.400Z,24.40
2018-07-31T21:06:17.539Z,24.60
2018-07-31T21:08:49.723Z,24.70
2018-07-31T21:16:25.114Z,24.30
2018-07-31T21:21:28.589Z,24.30
2018-07-31T21:24:00.698Z,23.80
2018-07-31T21:29:04.003Z,23.60
2018-07-31T21:31:35.962Z,23.60
2018-07-31T21:36:39.186Z,24.00
2018-07-31T21:39:13.289Z,23.70
2018-07-31T21:46:47.741Z,23.60
2018-07-31T21:51:50.957Z,23.20
2018-07-31T21:56:54.663Z,23.40
2018-07-31T21:59:26.630Z,23.70
2018-07-31T22:04:30.802Z,23.80
2018-07-31T22:07:02.858Z,23.70
2018-07-31T22:09:49.111Z,23.90
2018-07-31T22:12:21.138Z,23.60
2018-07-31T22:14:53.039Z,23.60
2018-07-31T22:17:25.148Z,23.40
2018-07-31T22:19:57.006Z,23.60
2018-07-31T22:22:28.989Z,23.60
2018-07-31T22:25:01.021Z,23.10
2018-07-31T22:27:33.041Z,22.60
2018-07-31T22:32:36.718Z,22.40
2018-07-31T22:35:08.600Z,22.60
2018-07-31T22:37:40.538Z,23.20
2018-07-31T22:40:12.422Z,23.20
2018-07-31T22:45:15.594Z,22.50
2018-07-31T22:50:18.767Z,22.40
2018-07-31T22:52:50.668Z,21.90
2018-07-31T22:57:53.748Z,22.20
2018-07-31T23:02:56.922Z,22.40
2018-07-31T23:05:28.846Z,22.40
2018-07-31T23:08:00.807Z,22.00
2018-07-31T23:10:32.773Z,21.90
2018-07-31T23:13:04.753Z,21.90
2018-07-31T23:15:36.610Z,22.00
2018-07-31T23:18:08.566Z,22.00
2018-07-31T23:20:40.500Z,22.20
2018-07-31T23:23:12.474Z,22.40
2018-07-31T23:25:44.397Z,22.40
2018-07-31T23:28:16.454Z,22.30
2018-07-31T23:30:48.281Z,22.30
2018-07-31T23:33:20.206Z,22.30
2018-07-31T23:35:52.146Z,22.30
2018-07-31T23:40:55.253Z,22.40
2018-07-31T23:43:27.147Z,22.30
2018-07-31T23:45:59.068Z,22.20
2018-07-31T23:48:31.049Z,22.20
2018-07-31T23:51:02.986Z,22.20
2018-07-31T23:53:35.945Z,22.20
2018-07-31T23:56:07.886Z,22.00
2018-07-31T23:58:39.806Z,22.10
